sensor_id;sensor_type;location;lat;lon;timestamp;pressure;altitude;pressure_sealevel;temperature;humidity
34979;BME280;21185;50.978;13.720;2023-03-16T00:01:56;98738.47;;;2.60;65.38
34979;BME280;21185;50.978;13.720;2023-03-16T00:06:58;98736.22;;;2.55;65.39
34979;BME280;21185;50.978;13.720;2023-03-16T00:12:02;98741.44;;;2.54;65.55
34979;BME280;21185;50.978;13.720;2023-03-16T00:17:04;98738.16;;;2.52;65.53
34979;BME280;21185;50.978;13.720;2023-03-16T00:22:07;98747.78;;;2.48;65.42
34979;BME280;21185;50.978;13.720;2023-03-16T00:27:11;98740.50;;;2.42;65.57
34979;BME280;21185;50.978;13.720;2023-03-16T00:32:21;98745.91;;;2.38;65.56
34979;BME280;21185;50.978;13.720;2023-03-16T00:37:25;98755.44;;;2.36;65.72
34979;BME280;21185;50.978;13.720;2023-03-16T00:42:28;98748.75;;;2.33;65.76
34979;BME280;21185;50.978;13.720;2023-03-16T00:47:32;98752.25;;;2.32;65.75
34979;BME280;21185;50.978;13.720;2023-03-16T00:52:35;98753.16;;;2.31;66.06
34979;BME280;21185;50.978;13.720;2023-03-16T00:57:36;98759.22;;;2.30;66.16
34979;BME280;21185;50.978;13.720;2023-03-16T01:02:43;98760.84;;;2.31;66.16
34979;BME280;21185;50.978;13.720;2023-03-16T01:07:47;98757.56;;;2.29;66.22
34979;BME280;21185;50.978;13.720;2023-03-16T01:12:50;98758.47;;;2.28;66.17
34979;BME280;21185;50.978;13.720;2023-03-16T01:17:57;98777.31;;;2.27;66.07
34979;BME280;21185;50.978;13.720;2023-03-16T01:23:02;98779.25;;;2.23;66.20
34979;BME280;21185;50.978;13.720;2023-03-16T01:28:05;98780.09;;;2.24;66.42
34979;BME280;21185;50.978;13.720;2023-03-16T01:33:06;98786.03;;;2.24;66.34
34979;BME280;21185;50.978;13.720;2023-03-16T01:38:12;98779.97;;;2.25;66.47
34979;BME280;21185;50.978;13.720;2023-03-16T01:43:14;98785.19;;;2.24;66.45
34979;BME280;21185;50.978;13.720;2023-03-16T01:48:18;98782.63;;;2.24;66.46
34979;BME280;21185;50.978;13.720;2023-03-16T01:53:22;98786.03;;;2.24;66.31
34979;BME280;21185;50.978;13.720;2023-03-16T01:58:27;98785.41;;;2.21;66.35
34979;BME280;21185;50.978;13.720;2023-03-16T02:03:29;98784.69;;;2.19;66.37
34979;BME280;21185;50.978;13.720;2023-03-16T02:08:44;98779.66;;;2.17;66.51
34979;BME280;21185;50.978;13.720;2023-03-16T02:13:48;98783.22;;;2.15;66.39
34979;BME280;21185;50.978;13.720;2023-03-16T02:18:50;98780.75;;;2.13;66.53
34979;BME280;21185;50.978;13.720;2023-03-16T02:23:53;98790.19;;;2.13;66.45
34979;BME280;21185;50.978;13.720;2023-03-16T02:29:09;98792.00;;;2.11;66.50
34979;BME280;21185;50.978;13.720;2023-03-16T02:34:22;98791.28;;;2.09;66.56
34979;BME280;21185;50.978;13.720;2023-03-16T02:39:26;98794.03;;;2.06;66.50
34979;BME280;21185;50.978;13.720;2023-03-16T02:44:34;98791.47;;;2.06;66.42
34979;BME280;21185;50.978;13.720;2023-03-16T02:49:41;98798.44;;;2.04;66.60
34979;BME280;21185;50.978;13.720;2023-03-16T02:54:46;98800.19;;;2.03;66.71
34979;BME280;21185;50.978;13.720;2023-03-16T02:59:48;98797.72;;;2.02;66.56
34979;BME280;21185;50.978;13.720;2023-03-16T03:04:50;98800.28;;;2.02;66.73
34979;BME280;21185;50.978;13.720;2023-03-16T03:09:57;98799.53;;;2.00;66.62
34979;BME280;21185;50.978;13.720;2023-03-16T03:15:00;98789.41;;;1.98;66.67
34979;BME280;21185;50.978;13.720;2023-03-16T03:20:10;98805.78;;;1.95;66.48
34979;BME280;21185;50.978;13.720;2023-03-16T03:25:19;98805.97;;;1.92;66.52
34979;BME280;21185;50.978;13.720;2023-03-16T03:30:22;98807.88;;;1.89;66.71
34979;BME280;21185;50.978;13.720;2023-03-16T03:35:25;98813.00;;;1.89;66.61
34979;BME280;21185;50.978;13.720;2023-03-16T03:40:28;98820.06;;;1.85;66.49
34979;BME280;21185;50.978;13.720;2023-03-16T03:45:34;98820.97;;;1.84;66.56
34979;BME280;21185;50.978;13.720;2023-03-16T03:50:37;98821.06;;;1.83;66.55
34979;BME280;21185;50.978;13.720;2023-03-16T03:55:58;98828.09;;;1.79;66.60
34979;BME280;21185;50.978;13.720;2023-03-16T04:01:00;98826.56;;;1.77;66.67
34979;BME280;21185;50.978;13.720;2023-03-16T04:06:04;98825.72;;;1.76;66.73
34979;BME280;21185;50.978;13.720;2023-03-16T04:11:09;98826.66;;;1.75;66.74
34979;BME280;21185;50.978;13.720;2023-03-16T04:16:13;98827.56;;;1.74;66.68
34979;BME280;21185;50.978;13.720;2023-03-16T04:21:21;98821.63;;;1.74;66.77
34979;BME280;21185;50.978;13.720;2023-03-16T04:26:24;98819.34;;;1.69;66.68
34979;BME280;21185;50.978;13.720;2023-03-16T04:31:27;98818.63;;;1.67;66.83
34979;BME280;21185;50.978;13.720;2023-03-16T04:36:30;98819.72;;;1.63;66.75
34979;BME280;21185;50.978;13.720;2023-03-16T04:41:35;98813.88;;;1.61;66.93
34979;BME280;21185;50.978;13.720;2023-03-16T04:46:44;98819.91;;;1.60;66.94
34979;BME280;21185;50.978;13.720;2023-03-16T04:51:47;98816.44;;;1.61;67.04
34979;BME280;21185;50.978;13.720;2023-03-16T04:56:52;98807.84;;;1.62;67.05
34979;BME280;21185;50.978;13.720;2023-03-16T05:02:06;98819.91;;;1.60;67.18
34979;BME280;21185;50.978;13.720;2023-03-16T05:07:09;98812.22;;;1.60;66.82
34979;BME280;21185;50.978;13.720;2023-03-16T05:12:15;98815.69;;;1.59;67.04
34979;BME280;21185;50.978;13.720;2023-03-16T05:17:19;98816.63;;;1.58;66.85
34979;BME280;21185;50.978;13.720;2023-03-16T05:22:21;98816.63;;;1.58;67.12
34979;BME280;21185;50.978;13.720;2023-03-16T05:27:48;98818.25;;;1.59;66.95
34979;BME280;21185;50.978;13.720;2023-03-16T05:32:58;98819.91;;;1.60;66.98
34979;BME280;21185;50.978;13.720;2023-03-16T05:38:02;98828.22;;;1.63;67.02
34979;BME280;21185;50.978;13.720;2023-03-16T05:43:07;98829.75;;;1.66;67.05
34979;BME280;21185;50.978;13.720;2023-03-16T05:48:15;98828.66;;;1.70;66.87
34979;BME280;21185;50.978;13.720;2023-03-16T05:53:22;98829.22;;;1.75;67.00
34979;BME280;21185;50.978;13.720;2023-03-16T05:58:34;98836.59;;;1.80;67.11
34979;BME280;21185;50.978;13.720;2023-03-16T06:03:40;98839.50;;;1.88;66.97
34979;BME280;21185;50.978;13.720;2023-03-16T06:08:47;98842.53;;;1.94;67.04
34979;BME280;21185;50.978;13.720;2023-03-16T06:13:51;98844.69;;;2.01;67.10
34979;BME280;21185;50.978;13.720;2023-03-16T06:18:53;98840.22;;;2.04;67.02
34979;BME280;21185;50.978;13.720;2023-03-16T06:24:01;98845.78;;;2.11;67.13
34979;BME280;21185;50.978;13.720;2023-03-16T06:29:04;98852.34;;;2.15;66.98
34979;BME280;21185;50.978;13.720;2023-03-16T06:34:09;98846.03;;;2.20;67.37
34979;BME280;21185;50.978;13.720;2023-03-16T06:39:11;98852.41;;;2.27;67.37
34979;BME280;21185;50.978;13.720;2023-03-16T06:44:19;98847.72;;;2.34;67.38
34979;BME280;21185;50.978;13.720;2023-03-16T06:49:39;98853.28;;;2.41;67.43
34979;BME280;21185;50.978;13.720;2023-03-16T06:54:49;98864.50;;;2.52;67.75
34979;BME280;21185;50.978;13.720;2023-03-16T06:59:53;98855.94;;;2.66;67.74
34979;BME280;21185;50.978;13.720;2023-03-16T07:04:55;98857.69;;;2.78;67.64
34979;BME280;21185;50.978;13.720;2023-03-16T07:09:58;98858.66;;;2.90;67.72
34979;BME280;21185;50.978;13.720;2023-03-16T07:15:01;98861.53;;;2.98;67.73
34979;BME280;21185;50.978;13.720;2023-03-16T07:20:05;98863.41;;;3.09;67.95
34979;BME280;21185;50.978;13.720;2023-03-16T07:25:11;98870.78;;;3.13;67.99
34979;BME280;21185;50.978;13.720;2023-03-16T07:30:20;98881.47;;;3.20;68.11
34979;BME280;21185;50.978;13.720;2023-03-16T07:35:23;98873.97;;;3.30;68.13
34979;BME280;21185;50.978;13.720;2023-03-16T07:40:25;98871.22;;;3.45;68.10
34979;BME280;21185;50.978;13.720;2023-03-16T07:45:34;98866.06;;;3.58;68.00
34979;BME280;21185;50.978;13.720;2023-03-16T07:50:37;98856.72;;;3.70;68.05
34979;BME280;21185;50.978;13.720;2023-03-16T07:55:41;98855.28;;;3.78;68.10
34979;BME280;21185;50.978;13.720;2023-03-16T08:00:43;98867.97;;;3.93;68.16
34979;BME280;21185;50.978;13.720;2023-03-16T08:05:45;98862.22;;;4.02;68.28
34979;BME280;21185;50.978;13.720;2023-03-16T08:10:51;98879.22;;;4.15;68.19
34979;BME280;21185;50.978;13.720;2023-03-16T08:15:58;98866.16;;;4.18;68.30
34979;BME280;21185;50.978;13.720;2023-03-16T08:21:11;98860.59;;;4.25;68.09
34979;BME280;21185;50.978;13.720;2023-03-16T08:26:13;98877.41;;;4.41;68.00
34979;BME280;21185;50.978;13.720;2023-03-16T08:31:15;98883.91;;;4.58;67.77
34979;BME280;21185;50.978;13.720;2023-03-16T08:36:23;98876.97;;;4.71;67.39
34979;BME280;21185;50.978;13.720;2023-03-16T08:41:28;98893.13;;;4.84;67.19
34979;BME280;21185;50.978;13.720;2023-03-16T08:46:35;98893.66;;;5.01;66.89
34979;BME280;21185;50.978;13.720;2023-03-16T08:51:37;98891.03;;;5.13;66.59
34979;BME280;21185;50.978;13.720;2023-03-16T08:56:39;98885.53;;;5.18;66.79
34979;BME280;21185;50.978;13.720;2023-03-16T09:01:41;98890.41;;;5.21;66.67
34979;BME280;21185;50.978;13.720;2023-03-16T09:06:44;98895.94;;;5.28;66.92
34979;BME280;21185;50.978;13.720;2023-03-16T09:11:48;98894.66;;;5.33;66.96
34979;BME280;21185;50.978;13.720;2023-03-16T09:16:50;98897.13;;;5.46;67.19
34979;BME280;21185;50.978;13.720;2023-03-16T09:21:52;98896.44;;;5.55;66.95
34979;BME280;21185;50.978;13.720;2023-03-16T09:26:54;98905.59;;;5.59;66.88
34979;BME280;21185;50.978;13.720;2023-03-16T09:31:57;98891.78;;;5.60;67.12
34979;BME280;21185;50.978;13.720;2023-03-16T09:36:59;98897.63;;;5.73;67.19
34979;BME280;21185;50.978;13.720;2023-03-16T09:47:14;98898.84;;;6.03;66.97
34979;BME280;21185;50.978;13.720;2023-03-16T09:52:40;98890.63;;;6.20;66.21
34979;BME280;21185;50.978;13.720;2023-03-16T10:10:01;98890.56;;;6.42;65.53
34979;BME280;21185;50.978;13.720;2023-03-16T10:20:47;98886.94;;;6.45;64.50
34979;BME280;21185;50.978;13.720;2023-03-16T10:25:54;98893.25;;;6.52;64.46
34979;BME280;21185;50.978;13.720;2023-03-16T10:30:58;98888.06;;;6.63;64.29
34979;BME280;21185;50.978;13.720;2023-03-16T10:46:25;98888.50;;;7.00;63.44
34979;BME280;21185;50.978;13.720;2023-03-16T10:51:30;98884.84;;;7.03;63.06
34979;BME280;21185;50.978;13.720;2023-03-16T10:56:33;98879.31;;;7.07;62.87
34979;BME280;21185;50.978;13.720;2023-03-16T11:01:36;98877.81;;;7.05;62.62
34979;BME280;21185;50.978;13.720;2023-03-16T11:06:54;98879.69;;;7.03;62.16
34979;BME280;21185;50.978;13.720;2023-03-16T11:11:57;98870.19;;;7.03;61.70
34979;BME280;21185;50.978;13.720;2023-03-16T11:17:06;98862.88;;;7.08;61.29
34979;BME280;21185;50.978;13.720;2023-03-16T11:22:14;98854.59;;;7.05;61.54
34979;BME280;21185;50.978;13.720;2023-03-16T11:32:29;98844.00;;;7.08;60.69
34979;BME280;21185;50.978;13.720;2023-03-16T11:37:47;98836.84;;;7.11;60.69
34979;BME280;21185;50.978;13.720;2023-03-16T12:04:03;98815.16;;;7.24;59.36
34979;BME280;21185;50.978;13.720;2023-03-16T12:15:09;98803.63;;;7.28;59.08
34979;BME280;21185;50.978;13.720;2023-03-16T12:25:22;98790.22;;;7.34;59.00
34979;BME280;21185;50.978;13.720;2023-03-16T12:47:04;98776.28;;;7.46;57.95
34979;BME280;21185;50.978;13.720;2023-03-16T12:52:12;98775.47;;;7.45;58.19
34979;BME280;21185;50.978;13.720;2023-03-16T12:57:15;98771.81;;;7.48;58.18
34979;BME280;21185;50.978;13.720;2023-03-16T13:02:25;98771.41;;;7.53;57.97
34979;BME280;21185;50.978;13.720;2023-03-16T13:07:30;98763.66;;;7.53;57.46
34979;BME280;21185;50.978;13.720;2023-03-16T13:12:33;98758.50;;;7.53;57.53
34979;BME280;21185;50.978;13.720;2023-03-16T13:17:39;98747.34;;;7.52;57.15
34979;BME280;21185;50.978;13.720;2023-03-16T13:22:47;98752.25;;;7.55;56.66
34979;BME280;21185;50.978;13.720;2023-03-16T13:27:53;98744.25;;;7.58;56.55
34979;BME280;21185;50.978;13.720;2023-03-16T13:33:11;98733.66;;;7.61;56.00
34979;BME280;21185;50.978;13.720;2023-03-16T13:38:19;98738.13;;;7.59;55.46
34979;BME280;21185;50.978;13.720;2023-03-16T13:43:29;98732.56;;;7.64;55.23
34979;BME280;21185;50.978;13.720;2023-03-16T13:48:36;98741.41;;;7.61;54.90
34979;BME280;21185;50.978;13.720;2023-03-16T13:53:39;98736.50;;;7.58;53.98
34979;BME280;21185;50.978;13.720;2023-03-16T13:58:46;98726.16;;;7.58;53.96
34979;BME280;21185;50.978;13.720;2023-03-16T14:03:50;98721.25;;;7.55;53.40
34979;BME280;21185;50.978;13.720;2023-03-16T14:09:16;98709.03;;;7.57;53.13
34979;BME280;21185;50.978;13.720;2023-03-16T14:14:26;98701.16;;;7.59;53.40
34979;BME280;21185;50.978;13.720;2023-03-16T14:19:29;98705.63;;;7.57;53.13
34979;BME280;21185;50.978;13.720;2023-03-16T14:24:37;98701.72;;;7.62;53.16
34979;BME280;21185;50.978;13.720;2023-03-16T14:29:42;98703.63;;;7.70;53.25
34979;BME280;21185;50.978;13.720;2023-03-16T14:34:48;98696.03;;;7.78;53.66
34979;BME280;21185;50.978;13.720;2023-03-16T14:40:01;98700.91;;;7.81;53.66
34979;BME280;21185;50.978;13.720;2023-03-16T14:45:09;98706.63;;;7.75;53.59
34979;BME280;21185;50.978;13.720;2023-03-16T14:50:23;98695.31;;;7.66;53.17
34979;BME280;21185;50.978;13.720;2023-03-16T14:55:26;98704.97;;;7.64;53.34
34979;BME280;21185;50.978;13.720;2023-03-16T15:00:29;98701.03;;;7.60;53.01
34979;BME280;21185;50.978;13.720;2023-03-16T15:05:40;98688.66;;;7.64;53.06
34979;BME280;21185;50.978;13.720;2023-03-16T15:10:43;98699.13;;;7.62;53.12
34979;BME280;21185;50.978;13.720;2023-03-16T15:15:45;98687.56;;;7.66;53.65
34979;BME280;21185;50.978;13.720;2023-03-16T15:20:49;98684.72;;;7.69;53.54
34979;BME280;21185;50.978;13.720;2023-03-16T15:25:54;98683.50;;;7.64;53.47
34979;BME280;21185;50.978;13.720;2023-03-16T15:31:01;98684.56;;;7.61;54.03
34979;BME280;21185;50.978;13.720;2023-03-16T15:36:20;98679.13;;;7.55;53.71
34979;BME280;21185;50.978;13.720;2023-03-16T15:41:23;98680.75;;;7.46;54.29
34979;BME280;21185;50.978;13.720;2023-03-16T15:46:33;98686.44;;;7.40;54.27
34979;BME280;21185;50.978;13.720;2023-03-16T15:51:35;98674.75;;;7.36;54.25
34979;BME280;21185;50.978;13.720;2023-03-16T15:56:40;98657.88;;;7.32;53.97
34979;BME280;21185;50.978;13.720;2023-03-16T16:01:55;98648.34;;;7.23;54.09
34979;BME280;21185;50.978;13.720;2023-03-16T16:06:58;98660.13;;;7.15;54.24
34979;BME280;21185;50.978;13.720;2023-03-16T16:12:03;98657.81;;;7.12;54.23
34979;BME280;21185;50.978;13.720;2023-03-16T16:17:16;98671.25;;;7.06;54.33
34979;BME280;21185;50.978;13.720;2023-03-16T16:22:41;98671.22;;;6.97;54.62
34979;BME280;21185;50.978;13.720;2023-03-16T16:27:43;98667.63;;;6.88;54.85
34979;BME280;21185;50.978;13.720;2023-03-16T16:32:47;98673.97;;;6.74;55.08
34979;BME280;21185;50.978;13.720;2023-03-16T16:37:49;98681.50;;;6.66;55.34
34979;BME280;21185;50.978;13.720;2023-03-16T16:42:52;98685.41;;;6.61;55.56
34979;BME280;21185;50.978;13.720;2023-03-16T16:47:54;98686.56;;;6.47;55.40
34979;BME280;21185;50.978;13.720;2023-03-16T16:52:56;98682.84;;;6.40;55.67
34979;BME280;21185;50.978;13.720;2023-03-16T16:57:58;98673.97;;;6.33;56.02
34979;BME280;21185;50.978;13.720;2023-03-16T17:03:00;98661.03;;;6.23;55.93
34979;BME280;21185;50.978;13.720;2023-03-16T17:08:03;98662.72;;;6.13;56.25
34979;BME280;21185;50.978;13.720;2023-03-16T17:18:32;98665.84;;;5.96;56.34
34979;BME280;21185;50.978;13.720;2023-03-16T17:23:34;98667.97;;;5.91;56.37
34979;BME280;21185;50.978;13.720;2023-03-16T17:28:42;98666.53;;;5.86;56.45
34979;BME280;21185;50.978;13.720;2023-03-16T17:33:46;98660.94;;;5.81;56.50
34979;BME280;21185;50.978;13.720;2023-03-16T17:38:48;98668.09;;;5.78;56.58
34979;BME280;21185;50.978;13.720;2023-03-16T17:43:51;98676.19;;;5.73;56.90
34979;BME280;21185;50.978;13.720;2023-03-16T17:48:57;98671.53;;;5.67;56.59
34979;BME280;21185;50.978;13.720;2023-03-16T17:54:00;98652.13;;;5.63;56.71
34979;BME280;21185;50.978;13.720;2023-03-16T17:59:14;98649.22;;;5.57;57.00
34979;BME280;21185;50.978;13.720;2023-03-16T18:04:20;98643.47;;;5.53;56.86
34979;BME280;21185;50.978;13.720;2023-03-16T18:09:23;98641.84;;;5.52;56.89
34979;BME280;21185;50.978;13.720;2023-03-16T18:19:36;98635.19;;;5.49;56.67
34979;BME280;21185;50.978;13.720;2023-03-16T18:24:38;98621.88;;;5.44;56.93
34979;BME280;21185;50.978;13.720;2023-03-16T18:29:40;98613.69;;;5.39;56.89
34979;BME280;21185;50.978;13.720;2023-03-16T18:34:43;98620.72;;;5.37;57.04
34979;BME280;21185;50.978;13.720;2023-03-16T18:39:48;98616.50;;;5.36;57.06
34979;BME280;21185;50.978;13.720;2023-03-16T18:44:50;98616.63;;;5.35;57.22
34979;BME280;21185;50.978;13.720;2023-03-16T18:49:55;98621.78;;;5.35;57.27
34979;BME280;21185;50.978;13.720;2023-03-16T18:54:58;98619.09;;;5.36;57.29
34979;BME280;21185;50.978;13.720;2023-03-16T19:00:00;98608.91;;;5.35;57.25
34979;BME280;21185;50.978;13.720;2023-03-16T19:05:05;98604.00;;;5.32;57.29
34979;BME280;21185;50.978;13.720;2023-03-16T19:10:21;98602.25;;;5.32;57.29
34979;BME280;21185;50.978;13.720;2023-03-16T19:15:29;98600.50;;;5.33;57.27
34979;BME280;21185;50.978;13.720;2023-03-16T19:20:33;98603.75;;;5.35;57.26
34979;BME280;21185;50.978;13.720;2023-03-16T19:25:37;98605.41;;;5.36;57.33
34979;BME280;21185;50.978;13.720;2023-03-16T19:30:41;98590.78;;;5.36;57.30
34979;BME280;21185;50.978;13.720;2023-03-16T19:35:43;98583.88;;;5.37;57.31
34979;BME280;21185;50.978;13.720;2023-03-16T19:40:58;98571.81;;;5.37;57.38
34979;BME280;21185;50.978;13.720;2023-03-16T19:46:01;98576.16;;;5.37;57.23
34979;BME280;21185;50.978;13.720;2023-03-16T19:51:03;98577.22;;;5.34;57.32
34979;BME280;21185;50.978;13.720;2023-03-16T19:56:19;98571.25;;;5.34;57.35
34979;BME280;21185;50.978;13.720;2023-03-16T20:01:26;98576.50;;;5.32;57.32
34979;BME280;21185;50.978;13.720;2023-03-16T20:06:33;98580.97;;;5.30;57.32
34979;BME280;21185;50.978;13.720;2023-03-16T20:11:35;98582.03;;;5.28;57.09
34979;BME280;21185;50.978;13.720;2023-03-16T20:16:37;98580.16;;;5.30;57.19
34979;BME280;21185;50.978;13.720;2023-03-16T20:21:39;98584.81;;;5.36;57.03
34979;BME280;21185;50.978;13.720;2023-03-16T20:26:42;98577.09;;;5.36;57.04
34979;BME280;21185;50.978;13.720;2023-03-16T20:31:45;98573.56;;;5.37;56.96
34979;BME280;21185;50.978;13.720;2023-03-16T20:36:48;98571.81;;;5.37;57.05
34979;BME280;21185;50.978;13.720;2023-03-16T20:41:51;98569.94;;;5.39;56.76
34979;BME280;21185;50.978;13.720;2023-03-16T20:46:53;98576.03;;;5.38;56.96
34979;BME280;21185;50.978;13.720;2023-03-16T20:51:56;98582.22;;;5.36;56.75
34979;BME280;21185;50.978;13.720;2023-03-16T20:56:58;98560.13;;;5.33;56.71
34979;BME280;21185;50.978;13.720;2023-03-16T21:02:01;98560.63;;;5.27;56.69
34979;BME280;21185;50.978;13.720;2023-03-16T21:07:05;98548.25;;;5.21;56.48
34979;BME280;21185;50.978;13.720;2023-03-16T21:12:21;98544.84;;;5.20;56.60
34979;BME280;21185;50.978;13.720;2023-03-16T21:17:32;98551.63;;;5.21;56.70
34979;BME280;21185;50.978;13.720;2023-03-16T21:22:35;98528.63;;;5.20;56.63
34979;BME280;21185;50.978;13.720;2023-03-16T21:27:37;98528.75;;;5.18;56.45
34979;BME280;21185;50.978;13.720;2023-03-16T21:32:40;98520.34;;;5.16;56.42
34979;BME280;21185;50.978;13.720;2023-03-16T21:37:42;98518.03;;;5.13;56.45
34979;BME280;21185;50.978;13.720;2023-03-16T21:42:44;98523.41;;;5.10;56.04
34979;BME280;21185;50.978;13.720;2023-03-16T21:47:47;98517.81;;;5.05;55.88
34979;BME280;21185;50.978;13.720;2023-03-16T21:52:49;98514.53;;;5.03;55.42
34979;BME280;21185;50.978;13.720;2023-03-16T21:57:52;98517.13;;;5.03;55.47
34979;BME280;21185;50.978;13.720;2023-03-16T22:02:57;98525.75;;;5.02;55.16
34979;BME280;21185;50.978;13.720;2023-03-16T22:08:02;98526.69;;;5.01;55.46
34979;BME280;21185;50.978;13.720;2023-03-16T22:13:08;98515.03;;;4.97;55.43
34979;BME280;21185;50.978;13.720;2023-03-16T22:18:31;98511.50;;;4.98;55.34
34979;BME280;21185;50.978;13.720;2023-03-16T22:23:35;98489.19;;;4.99;55.28
34979;BME280;21185;50.978;13.720;2023-03-16T22:28:37;98486.25;;;5.03;55.15
34979;BME280;21185;50.978;13.720;2023-03-16T22:33:40;98476.41;;;5.08;55.19
34979;BME280;21185;50.978;13.720;2023-03-16T22:38:44;98465.19;;;5.09;54.95
34979;BME280;21185;50.978;13.720;2023-03-16T22:43:46;98466.81;;;5.10;55.02
34979;BME280;21185;50.978;13.720;2023-03-16T22:48:53;98452.78;;;5.14;55.20
34979;BME280;21185;50.978;13.720;2023-03-16T22:53:58;98444.81;;;5.17;55.11
34979;BME280;21185;50.978;13.720;2023-03-16T22:59:04;98447.25;;;5.19;55.26
34979;BME280;21185;50.978;13.720;2023-03-16T23:04:19;98430.59;;;5.23;55.12
34979;BME280;21185;50.978;13.720;2023-03-16T23:09:22;98440.06;;;5.22;55.08
34979;BME280;21185;50.978;13.720;2023-03-16T23:14:28;98433.06;;;5.25;54.71
34979;BME280;21185;50.978;13.720;2023-03-16T23:19:32;98422.63;;;5.26;55.18
34979;BME280;21185;50.978;13.720;2023-03-16T23:24:34;98431.41;;;5.24;54.57
34979;BME280;21185;50.978;13.720;2023-03-16T23:29:37;98445.66;;;5.28;54.40
34979;BME280;21185;50.978;13.720;2023-03-16T23:34:39;98433.38;;;5.31;54.15
34979;BME280;21185;50.978;13.720;2023-03-16T23:39:41;98439.91;;;5.35;54.20
34979;BME280;21185;50.978;13.720;2023-03-16T23:44:43;98443.41;;;5.34;54.20
34979;BME280;21185;50.978;13.720;2023-03-16T23:49:45;98436.63;;;5.33;53.87
34979;BME280;21185;50.978;13.720;2023-03-16T23:54:47;98427.16;;;5.34;53.75
34979;BME280;21185;50.978;13.720;2023-03-16T23:59:50;98403.06;;;5.35;53.50
